Time;durP1;ratioP1;P1;durP2;ratioP2;P2;SDS_P1;SDS_P2;PMS_P1;PMS_P2;Temp;Humidity;BMP_temperature;BMP_pressure;BME280_temperature;BME280_humidity;BME280_pressure;Samples;Min_cycle;Max_cycle;Signal;HPM_P1;HPM_P2
2022/01/24 00:01:35;;;;;;;14.85;9.65;;;;;;;-143.84;84.69;45201.41;5134664;27;20587;-75
2022/01/24 00:04:03;;;;;;;11.82;7.70;;;;;;;-143.84;84.69;45188.06;5133863;27;20192;-75
2022/01/24 00:06:32;;;;;;;13.18;8.38;;;;;;;-143.84;84.75;45159.50;5133819;27;20214;-77
2022/01/24 00:08:59;;;;;;;15.45;8.88;;;;;;;-143.84;84.75;45167.13;5134011;27;20264;-76
2022/01/24 00:11:37;;;;;;;13.02;9.25;;;;;;;-143.84;84.53;45193.78;5134671;27;20198;-75
2022/01/24 00:14:48;;;;;;;12.10;7.80;;;;;;;-143.84;84.42;45172.84;5134673;27;20291;-75
2022/01/24 00:17:13;;;;;;;13.10;9.30;;;;;;;-143.84;84.30;45163.31;5134211;27;20587;-75
2022/01/24 00:27:54;;;;;;;12.20;7.88;;;;;;;-143.84;84.20;45150.00;5134187;27;20234;-76
2022/01/24 00:30:23;;;;;;;13.55;9.05;;;;;;;-143.84;84.15;45178.56;5134204;27;20208;-75
2022/01/24 00:32:50;;;;;;;12.50;9.05;;;;;;;-143.84;84.19;45161.41;5133437;27;20297;-75
2022/01/24 00:35:18;;;;;;;13.82;9.57;;;;;;;-143.84;84.08;45174.75;5133762;27;20245;-75
2022/01/24 00:37:45;;;;;;;15.98;10.20;;;;;;;-143.84;84.28;45155.69;5134062;27;20196;-75
2022/01/24 00:40:13;;;;;;;13.68;8.32;;;;;;;-143.84;84.26;45184.25;5134130;27;20228;-75
2022/01/24 00:42:51;;;;;;;14.43;9.63;;;;;;;-143.84;84.37;45172.84;5133748;27;20196;-75
2022/01/24 00:45:28;;;;;;;13.50;9.80;;;;;;;-143.84;84.27;45188.06;5133520;27;20196;-75
2022/01/24 00:48:27;;;;;;;16.15;7.70;;;;;;;-143.84;84.34;45186.16;5133407;27;20642;-75
2022/01/24 00:53:51;;;;;;;16.83;7.38;;;;;;;-143.84;84.66;45180.47;5133863;27;20314;-75
2022/01/24 00:56:18;;;;;;;15.48;8.48;;;;;;;-143.84;84.83;45148.09;5133160;27;20197;-75
2022/01/24 00:58:46;;;;;;;14.45;8.18;;;;;;;-143.84;84.70;45172.84;5132990;27;20204;-75
2022/01/24 01:01:13;;;;;;;15.00;9.45;;;;;;;-143.84;84.92;45153.81;5131516;27;20197;-75
2022/01/24 01:03:41;;;;;;;15.10;10.35;;;;;;;-143.84;84.80;45197.59;5132562;27;20253;-75
2022/01/24 01:06:10;;;;;;;15.95;9.80;;;;;;;-143.84;84.66;45174.75;5132961;27;20658;-75
2022/01/24 01:19:40;;;;;;;23.23;12.02;;;;;;;-143.84;85.51;45186.16;5132561;27;20227;-74
2022/01/24 01:22:07;;;;;;;18.63;11.27;;;;;;;-143.84;85.18;45218.53;5132630;27;20189;-74
2022/01/24 01:24:40;;;;;;;18.17;10.00;;;;;;;-143.84;85.44;45155.69;5131898;27;21002;-75
2022/01/24 01:27:11;;;;;;;19.17;10.73;;;;;;;-143.84;85.67;45195.69;5131253;27;20279;-74
2022/01/24 01:29:49;;;;;;;22.45;11.40;;;;;;;-143.84;85.88;45188.06;5131475;27;20554;-75
2022/01/24 01:32:26;;;;;;;21.25;11.90;;;;;;;-143.84;86.37;45155.69;5130699;27;20203;-75
2022/01/24 01:35:13;;;;;;;24.95;11.82;;;;;;;-143.84;86.39;45144.28;5131945;27;20232;-75
2022/01/24 01:37:57;;;;;;;20.33;11.70;;;;;;;-143.84;86.41;45142.38;5132018;27;20445;-74
2022/01/24 01:54:29;;;;;;;29.67;12.73;;;;;;;-143.84;86.82;45165.22;5132299;27;20658;-75
2022/01/24 01:56:58;;;;;;;22.27;13.18;;;;;;;-143.84;86.88;45170.94;5132119;27;20192;-75
2022/01/24 01:59:25;;;;;;;27.40;13.25;;;;;;;-143.84;87.45;45146.19;5131686;27;20281;-75
2022/01/24 02:01:55;;;;;;;26.35;13.50;;;;;;;-143.84;87.37;45150.00;5131191;27;20197;-75
2022/01/24 02:04:23;;;;;;;25.58;13.65;;;;;;;-143.84;87.67;45165.22;5131475;27;20220;-75
2022/01/24 02:06:51;;;;;;;32.92;14.35;;;;;;;-143.84;87.94;45159.50;5132071;27;20192;-74
2022/01/24 02:09:19;;;;;;;25.65;13.75;;;;;;;-143.84;87.38;45151.91;5131554;27;20200;-75
2022/01/24 02:11:47;;;;;;;25.00;13.38;;;;;;;-143.84;87.35;45136.66;5131647;27;20659;-75
2022/01/24 02:14:18;;;;;;;27.17;16.15;;;;;;;-143.84;86.97;45151.91;5131374;27;20257;-75
2022/01/24 02:16:51;;;;;;;26.13;13.27;;;;;;;-143.84;86.85;45142.38;5131517;27;20682;-75
2022/01/24 02:19:28;;;;;;;20.65;12.52;;;;;;;-143.84;87.12;45134.75;5131647;27;20203;-75
2022/01/24 02:22:28;;;;;;;20.08;12.45;;;;;;;-143.84;86.93;45153.81;5131504;27;20292;-75
2022/01/24 02:24:58;;;;;;;26.08;14.30;;;;;;;-143.84;87.18;45163.31;5124229;27;20332;-75
2022/01/24 02:27:28;;;;;;;24.77;12.25;;;;;;;-143.84;87.20;45159.50;5110333;28;20225;-75
2022/01/24 02:30:10;;;;;;;30.10;15.00;;;;;;;-143.84;87.19;45142.38;5110941;28;20289;-75
2022/01/24 02:32:39;;;;;;;21.00;12.10;;;;;;;-143.84;87.19;45138.56;5109853;28;20197;-75
2022/01/24 02:35:07;;;;;;;33.35;15.48;;;;;;;-143.84;87.17;45155.69;5126676;27;20261;-74
2022/01/24 02:37:36;;;;;;;29.50;14.55;;;;;;;-143.84;86.94;45159.50;5131152;27;20203;-75
2022/01/24 02:40:09;;;;;;;22.17;11.95;;;;;;;-143.84;86.62;45134.75;5131198;27;20289;-75
2022/01/24 02:48:26;;;;;;;23.90;13.88;;;;;;;-143.84;86.35;45161.41;5130390;28;20206;-75
2022/01/24 02:51:22;;;;;;;28.85;15.23;;;;;;;-143.84;85.83;45146.19;5130221;28;20200;-74
2022/01/24 02:53:50;;;;;;;24.05;13.00;;;;;;;-143.84;86.23;45161.41;5130551;27;20693;-75
2022/01/24 02:56:18;;;;;;;23.67;13.93;;;;;;;-143.84;86.08;45155.69;5135249;27;20245;-75
2022/01/24 02:58:45;;;;;;;23.63;13.27;;;;;;;-143.84;85.84;45142.38;5135482;27;20201;-75
2022/01/24 03:01:12;;;;;;;24.52;12.43;;;;;;;-143.84;85.71;45140.47;5135724;27;20212;-74
2022/01/24 03:03:40;;;;;;;30.77;15.15;;;;;;;-143.84;85.63;45188.06;5135256;27;20188;-74
2022/01/24 03:06:07;;;;;;;25.30;13.52;;;;;;;-143.84;85.80;45150.00;5135436;27;20966;-74
2022/01/24 03:08:37;;;;;;;29.80;13.90;;;;;;;-143.84;86.45;45172.84;5135608;27;20181;-74
2022/01/24 03:11:06;;;;;;;26.63;15.32;;;;;;;-143.84;86.02;45178.56;5135418;27;20203;-75
2022/01/24 03:13:36;;;;;;;24.05;14.40;;;;;;;-143.84;86.08;45157.59;5135342;27;20646;-75
2022/01/24 03:16:07;;;;;;;21.95;12.38;;;;;;;-143.84;85.94;45178.56;5134766;27;20257;-75
2022/01/24 03:18:35;;;;;;;22.67;13.45;;;;;;;-143.84;86.01;45178.56;5117221;27;20206;-75
2022/01/24 03:21:02;;;;;;;28.30;16.10;;;;;;;-143.84;86.31;45130.94;5134698;27;20221;-75
2022/01/24 03:23:30;;;;;;;42.65;16.67;;;;;;;-143.84;85.96;45155.69;5134581;27;20203;-75
2022/01/24 03:25:57;;;;;;;32.03;16.13;;;;;;;-143.84;85.84;45155.69;5134593;27;20233;-75
2022/01/24 03:28:26;;;;;;;24.90;15.50;;;;;;;-143.84;86.20;45169.03;5134890;27;20647;-74
2022/01/24 03:30:54;;;;;;;35.38;16.40;;;;;;;-143.84;85.91;45157.59;5134773;27;21079;-75
2022/01/24 03:33:21;;;;;;;31.48;15.43;;;;;;;-143.84;86.01;45188.06;5134944;27;20715;-75
2022/01/24 03:35:48;;;;;;;32.13;16.48;;;;;;;-143.84;86.05;45150.00;5111545;27;20247;-75
2022/01/24 03:38:16;;;;;;;25.38;15.07;;;;;;;-143.84;86.67;45159.50;5112652;28;20197;-75
2022/01/24 03:40:44;;;;;;;33.03;15.88;;;;;;;-143.84;86.71;45138.56;5113600;28;20213;-74
2022/01/24 03:43:12;;;;;;;27.42;14.80;;;;;;;-143.84;86.92;45159.50;5114240;28;20254;-74
2022/01/24 03:45:44;;;;;;;32.67;15.98;;;;;;;-143.84;86.91;45159.50;5113849;28;20193;-75
2022/01/24 03:48:25;;;;;;;32.78;16.27;;;;;;;-143.84;86.97;45150.00;5113608;28;20281;-74
2022/01/24 03:50:53;;;;;;;30.40;15.02;;;;;;;-143.84;86.77;45125.22;5113508;28;20647;-74
2022/01/24 03:53:21;;;;;;;25.98;13.85;;;;;;;-143.84;86.94;45176.66;5113476;28;20201;-75
2022/01/24 03:55:48;;;;;;;29.85;16.38;;;;;;;-143.84;87.04;45153.81;5112927;28;20894;-76
2022/01/24 03:58:16;;;;;;;34.85;16.33;;;;;;;-143.84;87.16;45153.81;5106146;28;20197;-76
2022/01/24 04:00:45;;;;;;;34.25;15.82;;;;;;;-143.84;87.20;45148.09;5098622;28;20320;-75
2022/01/24 04:03:14;;;;;;;22.80;11.23;;;;;;;-143.84;87.36;45155.69;5113792;28;20193;-75
2022/01/24 04:05:41;;;;;;;34.85;14.93;;;;;;;-143.84;87.49;45150.00;5111413;28;20200;-74
2022/01/24 04:08:08;;;;;;;38.90;16.98;;;;;;;-143.84;87.30;45153.81;5111604;28;20197;-74
2022/01/24 04:10:42;;;;;;;30.80;16.50;;;;;;;-143.84;87.42;45161.41;5112841;28;20194;-75
2022/01/24 04:13:22;;;;;;;29.75;17.95;;;;;;;-143.84;87.39;45142.38;5113229;28;20254;-74
2022/01/24 04:16:10;;;;;;;29.08;16.63;;;;;;;-143.84;87.28;45146.19;5113376;28;20231;-74
2022/01/24 04:18:47;;;;;;;29.23;16.05;;;;;;;-143.84;86.71;45136.66;5113354;28;20197;-74
2022/01/24 04:21:22;;;;;;;29.85;15.85;;;;;;;-143.84;86.62;45146.19;5112902;28;20714;-75
2022/01/24 04:23:55;;;;;;;28.20;16.15;;;;;;;-143.84;86.61;45155.69;5113221;28;20208;-75
2022/01/24 04:26:22;;;;;;;30.40;16.35;;;;;;;-143.84;86.56;45172.84;5112968;28;20240;-75
2022/01/24 04:28:49;;;;;;;33.80;16.10;;;;;;;-143.84;86.50;45157.59;5113399;28;20197;-74
2022/01/24 04:31:22;;;;;;;31.67;14.82;;;;;;;-143.84;86.08;45170.94;5113462;28;20227;-75
2022/01/24 04:33:50;;;;;;;30.27;16.38;;;;;;;-143.84;85.97;45144.28;5113636;28;20294;-75
2022/01/24 04:36:17;;;;;;;24.80;15.63;;;;;;;-143.84;85.88;45161.41;5113166;28;20190;-75
2022/01/24 04:38:46;;;;;;;31.83;16.20;;;;;;;-143.84;85.69;45176.66;5113096;28;20197;-74
2022/01/24 04:41:19;;;;;;;31.55;16.75;;;;;;;-143.84;85.62;45176.66;5113211;28;20615;-75
2022/01/24 04:43:55;;;;;;;33.28;17.27;;;;;;;-143.84;85.51;45127.13;5113291;28;20190;-75
2022/01/24 04:46:49;;;;;;;32.28;16.15;;;;;;;-143.84;85.66;45155.69;5112913;28;20205;-74
2022/01/24 04:54:52;;;;;;;25.80;15.15;;;;;;;-143.84;85.25;45161.41;5091558;28;20230;-74
2022/01/24 04:57:23;;;;;;;35.55;16.08;;;;;;;-143.84;85.31;45178.56;5102787;28;20198;-72
2022/01/24 04:59:52;;;;;;;33.53;16.98;;;;;;;-143.84;85.52;45184.25;5106717;28;20212;-76
2022/01/24 05:02:22;;;;;;;32.47;17.08;;;;;;;-143.84;86.05;45134.75;5113040;28;20192;-82
2022/01/24 05:04:50;;;;;;;34.70;18.20;;;;;;;-143.84;86.22;45146.19;5112183;28;20588;-74
2022/01/24 05:07:17;;;;;;;38.10;16.98;;;;;;;-143.84;86.55;45170.94;5113091;28;20205;-76
2022/01/24 05:09:50;;;;;;;32.90;18.10;;;;;;;-143.84;86.08;45148.09;5112256;28;20643;-72
2022/01/24 05:12:26;;;;;;;30.92;16.95;;;;;;;-143.84;84.91;45189.97;5111967;28;20663;-70
2022/01/24 05:23:28;;;;;;;36.35;17.10;;;;;;;-143.84;85.66;45159.50;5112244;28;20201;-75
2022/01/24 05:25:57;;;;;;;36.10;18.00;;;;;;;-143.84;85.72;45174.75;5111939;28;20718;-75
2022/01/24 05:28:25;;;;;;;35.67;16.63;;;;;;;-143.84;85.44;45172.84;5112501;28;20259;-75
2022/01/24 05:30:53;;;;;;;26.65;18.15;;;;;;;-143.84;85.47;45144.28;5112315;28;20611;-74
2022/01/24 05:33:22;;;;;;;36.42;18.58;;;;;;;-143.84;85.63;45155.69;5111975;28;20278;-75
2022/01/24 05:35:50;;;;;;;35.08;17.88;;;;;;;-143.84;85.06;45148.09;5112457;28;20267;-76
2022/01/24 05:38:17;;;;;;;29.10;14.68;;;;;;;-143.84;85.17;45172.84;5111212;28;20200;-75
2022/01/24 05:40:45;;;;;;;28.67;16.55;;;;;;;-143.84;84.71;45161.41;5110736;28;20303;-75
2022/01/24 05:43:12;;;;;;;28.27;15.90;;;;;;;-143.84;84.75;45161.41;5111410;28;20263;-75
2022/01/24 05:45:41;;;;;;;31.52;17.15;;;;;;;-143.84;84.29;45161.41;5112027;28;20197;-76
2022/01/24 05:48:09;;;;;;;26.15;16.33;;;;;;;-143.84;84.69;45167.13;5111394;28;20681;-74
2022/01/24 05:50:37;;;;;;;16.92;10.70;;;;;;;-143.84;84.32;45163.31;5111930;28;20262;-75
2022/01/24 05:53:05;;;;;;;32.15;15.82;;;;;;;-143.84;84.06;45161.41;5119541;27;20883;-76
2022/01/24 05:55:32;;;;;;;28.35;15.98;;;;;;;-143.84;83.55;45170.94;5113557;27;20709;-75
2022/01/24 05:58:00;;;;;;;27.65;15.82;;;;;;;-143.84;83.43;45184.25;5132093;27;20185;-75
2022/01/24 06:00:27;;;;;;;26.63;13.20;;;;;;;-143.84;83.00;45170.94;5131824;27;20208;-75
2022/01/24 06:02:54;;;;;;;28.63;14.65;;;;;;;-143.84;82.96;45193.78;5132171;27;20185;-76
2022/01/24 06:05:21;;;;;;;25.00;13.75;;;;;;;-143.84;83.07;45157.59;5131124;27;20230;-76
2022/01/24 06:07:50;;;;;;;21.67;10.10;;;;;;;-143.84;82.67;45186.16;5130989;27;20200;-76
2022/01/24 06:10:18;;;;;;;28.02;14.85;;;;;;;-143.84;82.71;45155.69;5131848;27;20201;-76
2022/01/24 06:12:45;;;;;;;24.85;13.55;;;;;;;-143.84;82.32;45193.78;5131831;27;20204;-76
2022/01/24 06:15:12;;;;;;;35.25;15.48;;;;;;;-143.84;82.52;45176.66;5131549;27;20269;-75
2022/01/24 06:17:40;;;;;;;20.38;10.57;;;;;;;-143.84;81.94;45195.69;5131924;27;20609;-76
2022/01/24 06:20:08;;;;;;;21.52;10.70;;;;;;;-143.84;81.44;45170.94;5131609;27;20199;-75
2022/01/24 06:22:37;;;;;;;20.10;12.32;;;;;;;-143.84;80.96;45184.25;5131341;27;20228;-75
2022/01/24 06:25:08;;;;;;;23.15;11.75;;;;;;;-143.84;80.94;45197.59;5131493;27;20338;-75
2022/01/24 06:27:35;;;;;;;20.75;13.07;;;;;;;-143.84;80.88;45205.22;5131792;27;20200;-75
2022/01/24 06:30:03;;;;;;;16.30;10.23;;;;;;;-143.84;80.80;45178.56;5124872;27;20205;-74
2022/01/24 06:32:31;;;;;;;22.15;12.73;;;;;;;-143.84;80.79;45201.41;5131139;27;20269;-75
2022/01/24 06:34:58;;;;;;;22.85;12.93;;;;;;;-143.84;80.67;45178.56;5131289;27;20193;-75
2022/01/24 06:37:25;;;;;;;25.50;12.75;;;;;;;-143.84;80.12;45203.31;5131389;27;20185;-75
2022/01/24 06:39:53;;;;;;;30.13;14.30;;;;;;;-143.84;80.63;45189.97;5131088;27;20197;-75
2022/01/24 06:42:22;;;;;;;23.10;11.95;;;;;;;-143.84;80.28;45207.13;5130913;27;20212;-75
2022/01/24 06:44:51;;;;;;;18.88;12.20;;;;;;;-143.84;80.45;45191.88;5131550;28;20547;-75
2022/01/24 06:47:18;;;;;;;25.02;13.63;;;;;;;-143.84;80.82;45167.13;5130472;28;20193;-75
2022/01/24 06:49:45;;;;;;;27.65;12.00;;;;;;;-143.84;80.71;45176.66;5128763;28;20200;-75
2022/01/24 06:52:13;;;;;;;22.23;11.80;;;;;;;-143.84;80.25;45210.94;5129184;28;20575;-74
2022/01/24 06:54:42;;;;;;;25.77;12.95;;;;;;;-143.84;80.25;45184.25;5130252;28;20323;-75
2022/01/24 06:57:11;;;;;;;19.10;11.45;;;;;;;-143.84;79.89;45220.44;5130581;28;20204;-75
2022/01/24 06:59:40;;;;;;;17.23;11.13;;;;;;;-143.84;79.61;45201.41;5130526;28;20211;-75
2022/01/24 07:02:07;;;;;;;18.40;11.00;;;;;;;-143.84;79.68;45159.50;5130244;28;20726;-75
2022/01/24 07:04:37;;;;;;;22.30;12.10;;;;;;;-143.84;79.56;45172.84;5130692;28;20942;-75
2022/01/24 07:07:05;;;;;;;15.43;9.30;;;;;;;-143.84;79.46;45193.78;5131057;28;20230;-75
2022/01/24 07:09:32;;;;;;;20.50;12.07;;;;;;;-143.84;79.20;45178.56;5130765;28;20283;-75
2022/01/24 07:11:59;;;;;;;18.27;12.13;;;;;;;-143.84;78.68;45186.16;5130885;28;20204;-75
2022/01/24 07:14:27;;;;;;;17.85;11.30;;;;;;;-143.84;78.35;45197.59;5129579;28;20208;-75
2022/01/24 07:17:11;;;;;;;18.90;11.30;;;;;;;-143.84;78.12;45205.22;5130178;28;20196;-75
2022/01/24 07:19:38;;;;;;;19.98;11.50;;;;;;;-143.84;78.10;45191.88;5128828;28;20727;-75
2022/01/24 07:22:06;;;;;;;20.45;10.80;;;;;;;-143.84;78.00;45176.66;5128805;28;20234;-75
2022/01/24 07:24:34;;;;;;;19.95;12.68;;;;;;;-143.84;77.96;45167.13;5128973;28;20200;-74
2022/01/24 07:27:02;;;;;;;18.40;8.93;;;;;;;-143.84;77.53;45199.50;5129917;28;20257;-75
2022/01/24 07:29:30;;;;;;;16.83;10.82;;;;;;;-143.84;77.60;45189.97;5106721;28;20734;-75
2022/01/24 07:31:59;;;;;;;23.13;11.57;;;;;;;-143.84;77.63;45205.22;5109546;28;20185;-74
2022/01/24 07:34:26;;;;;;;16.98;10.80;;;;;;;-143.84;76.99;45197.59;5110038;28;20258;-74
2022/01/24 07:36:55;;;;;;;16.08;8.57;;;;;;;-143.84;76.17;45188.06;5108805;28;20212;-74
2022/01/24 07:39:25;;;;;;;20.63;13.00;;;;;;;-143.84;75.98;45174.75;5108750;28;20674;-76
2022/01/24 07:41:52;;;;;;;23.05;10.68;;;;;;;-143.84;75.56;45193.78;5111930;28;20233;-73
2022/01/24 07:44:22;;;;;;;19.42;11.13;;;;;;;-143.84;75.62;45191.88;5112884;28;20306;-72
2022/01/24 07:46:49;;;;;;;19.05;12.52;;;;;;;-143.84;75.47;45218.53;5112702;28;21007;-73
2022/01/24 07:49:18;;;;;;;21.42;11.43;;;;;;;-143.84;75.16;45180.47;5112181;28;20243;-72
2022/01/24 07:51:46;;;;;;;13.45;7.90;;;;;;;-143.84;75.55;45174.75;5112019;28;20690;-72
2022/01/24 07:54:13;;;;;;;21.83;12.40;;;;;;;-143.84;76.12;45184.25;5112487;28;20653;-72
2022/01/24 07:56:41;;;;;;;19.92;12.98;;;;;;;-143.84;76.27;45189.97;5112905;28;20205;-72
2022/01/24 07:59:10;;;;;;;28.25;11.73;;;;;;;-143.84;76.68;45201.41;5112663;28;20193;-71
2022/01/24 08:01:41;;;;;;;18.83;9.38;;;;;;;-143.84;76.92;45193.78;5113046;28;20217;-74
2022/01/24 08:04:08;;;;;;;28.80;12.38;;;;;;;-143.84;77.29;45189.97;5113767;28;20281;-74
2022/01/24 08:06:47;;;;;;;14.25;8.98;;;;;;;-143.84;77.46;45161.41;5109304;28;20208;-76
2022/01/24 08:09:17;;;;;;;24.77;12.50;;;;;;;-143.84;77.00;45172.84;5104756;28;20205;-74
2022/01/24 08:11:44;;;;;;;19.13;11.65;;;;;;;-143.84;77.41;45184.25;5113361;28;20190;-75
2022/01/24 08:14:11;;;;;;;23.10;12.15;;;;;;;-143.84;77.46;45201.41;5113067;28;20189;-76
2022/01/24 08:16:40;;;;;;;13.80;8.73;;;;;;;-143.84;77.32;45184.25;5113088;28;20190;-74
2022/01/24 08:19:07;;;;;;;18.75;10.95;;;;;;;-143.84;77.15;45176.66;5113259;28;20181;-75
2022/01/24 08:21:36;;;;;;;22.70;10.40;;;;;;;-143.84;77.37;45159.50;5113269;28;20220;-74
2022/01/24 08:24:05;;;;;;;25.90;12.32;;;;;;;-143.84;76.96;45205.22;5112902;28;20196;-74
2022/01/24 08:26:33;;;;;;;22.48;11.40;;;;;;;-143.84;76.80;45180.47;5112744;28;20275;-75
2022/01/24 08:29:00;;;;;;;18.52;9.98;;;;;;;-143.84;75.97;45191.88;5111673;28;20198;-74
2022/01/24 08:31:28;;;;;;;20.75;11.98;;;;;;;-143.84;76.71;45193.78;5107070;28;20682;-74
2022/01/24 08:33:55;;;;;;;22.30;12.70;;;;;;;-143.84;76.15;45214.72;5097450;28;20205;-75
2022/01/24 08:36:22;;;;;;;20.15;11.25;;;;;;;-143.84;75.70;45165.22;5100702;28;20840;-75
2022/01/24 08:38:51;;;;;;;19.13;11.07;;;;;;;-143.84;75.52;45197.59;5093142;28;20197;-75
2022/01/24 08:41:25;;;;;;;24.98;10.63;;;;;;;-143.84;75.04;45151.91;5098544;28;20205;-75
2022/01/24 08:43:59;;;;;;;24.42;12.50;;;;;;;-143.84;74.13;45157.59;5100504;28;20208;-75
2022/01/24 08:46:27;;;;;;;14.65;11.02;;;;;;;-143.84;72.87;45170.94;5103305;28;20201;-74
2022/01/24 08:48:54;;;;;;;15.82;9.77;;;;;;;-143.84;73.01;45174.75;5094923;28;20241;-75
2022/01/24 08:51:21;;;;;;;18.42;11.73;;;;;;;-143.84;72.37;45163.31;5103967;28;20201;-74
2022/01/24 08:53:50;;;;;;;14.95;9.77;;;;;;;-143.84;72.11;45161.41;5101744;27;20256;-71
2022/01/24 08:56:18;;;;;;;20.92;11.43;;;;;;;-143.84;72.14;45165.22;5094405;28;20217;-71
2022/01/24 08:58:45;;;;;;;19.92;10.95;;;;;;;-143.84;72.08;45151.91;5102562;28;20240;-71
2022/01/24 09:01:14;;;;;;;17.25;10.43;;;;;;;-143.84;71.93;45186.16;5101700;28;20205;-71
2022/01/24 09:03:41;;;;;;;19.42;12.05;;;;;;;-143.84;71.48;45178.56;5104399;28;20210;-76
2022/01/24 09:06:10;;;;;;;28.53;11.20;;;;;;;-143.84;70.98;45201.41;5103017;28;20205;-75
2022/01/24 09:08:37;;;;;;;17.43;10.90;;;;;;;-143.84;70.43;45161.41;5106391;28;20450;-76
2022/01/24 09:11:06;;;;;;;15.38;10.80;;;;;;;-143.84;69.17;45161.41;5105662;28;20443;-76
2022/01/24 09:13:34;;;;;;;21.20;11.20;;;;;;;-143.84;69.25;45148.09;5101578;28;20194;-75
2022/01/24 09:16:01;;;;;;;21.67;9.95;;;;;;;-143.84;68.95;45186.16;5102125;28;20447;-75
2022/01/24 09:18:29;;;;;;;19.50;10.83;;;;;;;-143.84;68.37;45189.97;5103974;28;20196;-75
2022/01/24 09:20:56;;;;;;;19.23;10.97;;;;;;;-143.84;67.43;45184.25;5105868;28;20828;-75
2022/01/24 09:23:24;;;;;;;17.10;10.27;;;;;;;-143.84;67.08;45153.81;5102144;28;20480;-75
2022/01/24 09:25:52;;;;;;;14.90;8.70;;;;;;;-143.84;65.26;45180.47;5111554;28;20478;-75
2022/01/24 09:28:21;;;;;;;16.67;10.10;;;;;;;-143.84;64.79;45180.47;5097396;28;20453;-75
2022/01/24 09:30:48;;;;;;;15.13;9.63;;;;;;;-143.84;64.99;45146.19;5099324;28;20458;-74
2022/01/24 09:33:16;;;;;;;15.67;10.37;;;;;;;-143.84;65.21;45167.13;5099789;28;20439;-74
2022/01/24 09:35:44;;;;;;;12.40;8.60;;;;;;;-143.84;64.80;45189.97;5097698;28;20442;-73
2022/01/24 09:38:12;;;;;;;14.03;9.30;;;;;;;-143.84;64.88;45184.25;5098149;28;20451;-74
2022/01/24 09:40:40;;;;;;;13.83;9.60;;;;;;;-143.84;64.13;45148.09;5097249;28;20454;-74
2022/01/24 09:43:07;;;;;;;12.10;9.70;;;;;;;-143.84;63.40;45186.16;5098860;28;20509;-74
2022/01/24 09:45:37;;;;;;;16.83;10.37;;;;;;;-143.84;62.64;45178.56;5095830;28;20448;-74
2022/01/24 09:48:05;;;;;;;10.67;7.57;;;;;;;-143.84;62.88;45163.31;5094898;28;20459;-74
2022/01/24 09:50:32;;;;;;;20.63;11.30;;;;;;;-143.84;63.97;45167.13;5098246;28;20451;-73
2022/01/24 09:53:00;;;;;;;19.60;10.57;;;;;;;-143.84;62.27;45151.91;5099260;28;20493;-74
2022/01/24 09:55:27;;;;;;;15.70;10.00;;;;;;;-143.84;61.34;45144.28;5099532;28;20508;-79
2022/01/24 09:57:55;;;;;;;17.27;10.40;;;;;;;-143.84;61.06;45144.28;5096986;28;20451;-75
2022/01/24 10:00:24;;;;;;;15.03;10.50;;;;;;;-143.84;60.67;45193.78;5099981;28;20444;-74
2022/01/24 10:02:55;;;;;;;14.40;9.90;;;;;;;-143.84;60.49;45148.09;5100566;27;20879;-75
2022/01/24 10:05:27;;;;;;;15.80;10.70;;;;;;;-143.84;60.05;45146.19;5088851;28;20862;-75
2022/01/24 10:07:56;;;;;;;12.97;9.77;;;;;;;-143.84;59.81;45129.03;5101537;28;20455;-75
2022/01/24 10:10:35;;;;;;;18.93;8.83;;;;;;;-143.84;58.64;45165.22;5109695;28;20955;-75
2022/01/24 10:16:26;;;;;;;17.83;9.60;;;;;;;-143.84;60.38;45180.47;5100797;28;20963;-75
2022/01/24 10:19:02;;;;;;;11.10;8.13;;;;;;;-143.84;60.05;45169.03;5109067;28;20450;-75
2022/01/24 10:21:30;;;;;;;20.00;9.77;;;;;;;-143.84;60.35;45155.69;5093299;28;20462;-73
2022/01/24 10:23:57;;;;;;;12.20;7.73;;;;;;;-143.84;60.52;45169.03;5100664;28;20446;-75
2022/01/24 10:26:25;;;;;;;12.50;7.83;;;;;;;-143.84;60.34;45161.41;5106165;28;20835;-75
2022/01/24 10:28:53;;;;;;;13.00;8.37;;;;;;;-143.84;59.58;45163.31;5109385;28;20446;-75
2022/01/24 10:31:24;;;;;;;12.93;8.67;;;;;;;-143.84;59.52;45153.81;5108915;28;20443;-75
2022/01/24 10:33:54;;;;;;;17.77;10.57;;;;;;;-143.84;59.18;45148.09;5108312;28;20466;-75
2022/01/24 10:36:38;;;;;;;15.30;9.33;;;;;;;-143.84;59.01;45144.28;5108219;28;20447;-75
2022/01/24 10:39:18;;;;;;;15.20;9.10;;;;;;;-143.84;59.30;45150.00;5108219;28;20450;-75
2022/01/24 10:41:57;;;;;;;15.90;8.80;;;;;;;-143.84;59.20;45165.22;5099342;28;20460;-75
2022/01/24 10:44:29;;;;;;;13.00;9.50;;;;;;;-143.84;59.72;45193.78;5104826;28;20507;-75
2022/01/24 10:47:13;;;;;;;21.23;8.40;;;;;;;-143.84;59.33;45170.94;5111160;28;20435;-75
2022/01/24 10:49:41;;;;;;;15.33;9.77;;;;;;;-143.84;60.03;45186.16;5110854;28;21035;-76
2022/01/24 10:52:15;;;;;;;10.07;7.20;;;;;;;-143.84;58.53;45138.56;5111018;28;20431;-76
2022/01/24 10:54:42;;;;;;;15.67;8.77;;;;;;;-143.84;58.60;45184.25;5110912;28;20504;-76
2022/01/24 10:57:20;;;;;;;18.33;8.90;;;;;;;-143.84;58.85;45151.91;5110439;28;20449;-75
2022/01/24 10:59:47;;;;;;;13.60;8.40;;;;;;;-143.84;59.33;45163.31;5108062;28;20815;-76
2022/01/24 11:02:17;;;;;;;13.13;8.47;;;;;;;-143.84;57.88;45142.38;5107376;28;20900;-76
2022/01/24 11:04:44;;;;;;;9.43;7.13;;;;;;;-143.84;58.93;45161.41;5106942;28;20451;-76
2022/01/24 11:07:13;;;;;;;28.90;8.63;;;;;;;-143.84;58.43;45178.56;5109980;28;20885;-76
2022/01/24 11:09:42;;;;;;;8.83;7.70;;;;;;;-143.84;58.72;45136.66;5110386;28;20455;-76
2022/01/24 11:12:12;;;;;;;16.87;8.53;;;;;;;-143.84;58.85;45144.28;5110709;28;20435;-76
2022/01/24 11:14:41;;;;;;;18.90;9.10;;;;;;;-143.84;59.23;45163.31;5111049;28;20439;-76
2022/01/24 11:17:10;;;;;;;13.20;7.90;;;;;;;-143.84;58.75;45155.69;5114111;28;20426;-76
2022/01/24 11:19:41;;;;;;;21.13;8.20;;;;;;;-143.84;58.67;45172.84;5114586;28;20435;-76
2022/01/24 11:22:20;;;;;;;16.00;9.27;;;;;;;-143.84;59.81;45150.00;5094466;28;20445;-76
2022/01/24 11:24:53;;;;;;;13.20;9.17;;;;;;;-143.84;60.29;45151.91;5111079;28;20462;-76
2022/01/24 11:27:22;;;;;;;19.50;10.30;;;;;;;-143.84;61.05;45159.50;5115159;28;20443;-76
2022/01/24 11:29:51;;;;;;;14.80;9.10;;;;;;;-143.84;61.26;45170.94;5113972;28;20455;-76
2022/01/24 11:32:26;;;;;;;12.63;7.30;;;;;;;-143.84;61.41;45193.78;5120693;27;20442;-76
2022/01/24 11:34:55;;;;;;;16.60;9.97;;;;;;;-143.84;61.66;45136.66;5115599;28;20441;-76
2022/01/24 11:37:40;;;;;;;13.07;8.80;;;;;;;-143.84;61.46;45169.03;5111606;28;20440;-76
2022/01/24 11:40:11;;;;;;;22.20;10.23;;;;;;;-143.84;60.68;45150.00;5110966;28;20447;-76
2022/01/24 11:42:40;;;;;;;22.07;10.90;;;;;;;-143.84;60.89;45172.84;5111058;28;20496;-76
2022/01/24 11:45:13;;;;;;;13.10;9.40;;;;;;;-143.84;61.43;45153.81;5104422;28;20451;-76
2022/01/24 11:47:41;;;;;;;15.43;9.33;;;;;;;-143.84;61.43;45134.75;5104034;28;20447;-76
2022/01/24 11:50:31;;;;;;;15.63;9.93;;;;;;;-143.84;61.73;45161.41;5107807;28;20449;-76
2022/01/24 11:53:00;;;;;;;14.83;9.17;;;;;;;-143.84;62.08;45161.41;5111535;28;20475;-76
2022/01/24 11:55:34;;;;;;;16.53;9.30;;;;;;;-143.84;62.11;45150.00;5108271;28;20450;-75
2022/01/24 11:58:04;;;;;;;15.03;8.30;;;;;;;-143.84;63.31;45155.69;5102895;28;20464;-75
2022/01/24 12:00:38;;;;;;;19.73;10.17;;;;;;;-143.84;63.33;45178.56;5104887;28;20533;-75
2022/01/24 12:03:16;;;;;;;18.53;9.80;;;;;;;-143.84;63.14;45153.81;5109243;28;20490;-75
2022/01/24 12:05:45;;;;;;;15.13;9.97;;;;;;;-143.84;62.78;45186.16;5111482;28;20538;-75
2022/01/24 12:08:29;;;;;;;20.80;10.73;;;;;;;-143.84;62.05;45136.66;5108530;28;20454;-75
2022/01/24 12:11:11;;;;;;;15.37;9.53;;;;;;;-143.84;62.89;45169.03;5109869;28;20473;-75
2022/01/24 12:13:43;;;;;;;14.40;10.50;;;;;;;-143.84;63.53;45144.28;5105734;28;20537;-75
2022/01/24 12:16:12;;;;;;;18.93;7.90;;;;;;;-143.84;63.08;45150.00;5107652;28;20854;-75
2022/01/24 12:19:01;;;;;;;13.40;8.97;;;;;;;-143.84;63.93;45169.03;5106034;28;20457;-76